Park Hills, Iowa
Current Conditions -  °F | °C
As of 10:55 AM on Saturday 20 Dec 2014 (Local Time) from KPEA Reporting Station
Haze Haze  
Wind Chill: 32°   Ceiling: 100
Heat Index: 32°   Visibility: 0.75mi
Dew Point: 32°   Wind: 3mph
Humidity: 99%   Direction: 130°SE
Pressure: 30.2"   Gusts: NA
Location:  41.4592°N, 93.0401°W
Report Text: KPEA 201655Z AUTO 13003KT 3/4SM BR OVC001 00/00 A3020 RMK AO2 T00020001
Loading
Personal Weather Stations






























Interactive Weather Map New forecast layout! Learn more

10-Day Weather Forecast

Advertisements
Track Severe Weather on mobile